sensor_id;sensor_type;location;lat;lon;timestamp;P1;durP1;ratioP1;P2;durP2;ratioP2
62796;SDS011;48839;48.546;-4.178;2023-03-24T00:01:21;31.23;;;12.80;;
62796;SDS011;48839;48.546;-4.178;2023-03-24T00:03:47;33.05;;;16.27;;
62796;SDS011;48839;48.546;-4.178;2023-03-24T00:06:16;23.33;;;10.10;;
62796;SDS011;48839;48.546;-4.178;2023-03-24T00:08:43;26.23;;;8.38;;
62796;SDS011;48839;48.546;-4.178;2023-03-24T00:11:12;27.30;;;6.47;;
62796;SDS011;48839;48.546;-4.178;2023-03-24T00:13:39;25.25;;;6.05;;
62796;SDS011;48839;48.546;-4.178;2023-03-24T00:18:32;25.75;;;4.95;;
62796;SDS011;48839;48.546;-4.178;2023-03-24T00:20:58;23.98;;;4.60;;
62796;SDS011;48839;48.546;-4.178;2023-03-24T00:23:25;25.20;;;5.25;;
62796;SDS011;48839;48.546;-4.178;2023-03-24T00:26:08;24.13;;;5.05;;
62796;SDS011;48839;48.546;-4.178;2023-03-24T00:28:36;24.20;;;4.13;;
62796;SDS011;48839;48.546;-4.178;2023-03-24T00:31:03;28.05;;;5.10;;
62796;SDS011;48839;48.546;-4.178;2023-03-24T00:33:30;23.00;;;3.92;;
62796;SDS011;48839;48.546;-4.178;2023-03-24T00:35:59;32.22;;;4.82;;
62796;SDS011;48839;48.546;-4.178;2023-03-24T00:38:25;26.85;;;5.85;;
62796;SDS011;48839;48.546;-4.178;2023-03-24T00:40:51;18.10;;;3.92;;
62796;SDS011;48839;48.546;-4.178;2023-03-24T00:43:17;28.65;;;5.13;;
62796;SDS011;48839;48.546;-4.178;2023-03-24T00:45:44;27.08;;;5.13;;
62796;SDS011;48839;48.546;-4.178;2023-03-24T00:48:14;24.15;;;4.63;;
62796;SDS011;48839;48.546;-4.178;2023-03-24T00:50:45;30.90;;;5.90;;
62796;SDS011;48839;48.546;-4.178;2023-03-24T00:53:15;19.98;;;4.35;;
62796;SDS011;48839;48.546;-4.178;2023-03-24T00:55:42;29.88;;;5.68;;
62796;SDS011;48839;48.546;-4.178;2023-03-24T00:58:15;19.23;;;3.97;;
62796;SDS011;48839;48.546;-4.178;2023-03-24T01:00:44;24.23;;;4.15;;
62796;SDS011;48839;48.546;-4.178;2023-03-24T01:03:10;23.13;;;4.68;;
62796;SDS011;48839;48.546;-4.178;2023-03-24T01:05:36;28.92;;;4.43;;
62796;SDS011;48839;48.546;-4.178;2023-03-24T01:08:02;25.75;;;5.00;;
62796;SDS011;48839;48.546;-4.178;2023-03-24T01:10:30;30.00;;;3.95;;
62796;SDS011;48839;48.546;-4.178;2023-03-24T01:12:57;22.73;;;5.03;;
62796;SDS011;48839;48.546;-4.178;2023-03-24T01:15:25;27.75;;;4.03;;
62796;SDS011;48839;48.546;-4.178;2023-03-24T01:17:52;22.52;;;5.05;;
62796;SDS011;48839;48.546;-4.178;2023-03-24T01:20:18;24.25;;;4.82;;
62796;SDS011;48839;48.546;-4.178;2023-03-24T01:22:46;25.05;;;4.07;;
62796;SDS011;48839;48.546;-4.178;2023-03-24T01:25:13;24.63;;;3.78;;
62796;SDS011;48839;48.546;-4.178;2023-03-24T01:27:43;23.02;;;3.75;;
62796;SDS011;48839;48.546;-4.178;2023-03-24T01:30:11;21.83;;;4.05;;
62796;SDS011;48839;48.546;-4.178;2023-03-24T01:32:37;20.38;;;3.92;;
62796;SDS011;48839;48.546;-4.178;2023-03-24T01:35:03;20.33;;;4.35;;
62796;SDS011;48839;48.546;-4.178;2023-03-24T01:37:30;19.42;;;3.13;;
62796;SDS011;48839;48.546;-4.178;2023-03-24T01:39:56;19.50;;;4.10;;
62796;SDS011;48839;48.546;-4.178;2023-03-24T01:42:23;22.38;;;4.90;;
62796;SDS011;48839;48.546;-4.178;2023-03-24T01:44:50;20.67;;;3.70;;
62796;SDS011;48839;48.546;-4.178;2023-03-24T01:47:16;20.73;;;4.68;;
62796;SDS011;48839;48.546;-4.178;2023-03-24T01:49:47;27.33;;;4.85;;
62796;SDS011;48839;48.546;-4.178;2023-03-24T01:52:20;21.20;;;3.60;;
62796;SDS011;48839;48.546;-4.178;2023-03-24T01:54:52;23.90;;;3.95;;
62796;SDS011;48839;48.546;-4.178;2023-03-24T01:59:46;20.35;;;4.05;;
62796;SDS011;48839;48.546;-4.178;2023-03-24T02:02:13;26.73;;;3.67;;
62796;SDS011;48839;48.546;-4.178;2023-03-24T02:04:41;26.40;;;5.95;;
62796;SDS011;48839;48.546;-4.178;2023-03-24T02:07:10;22.38;;;3.78;;
62796;SDS011;48839;48.546;-4.178;2023-03-24T02:09:37;19.15;;;3.63;;
62796;SDS011;48839;48.546;-4.178;2023-03-24T02:12:03;32.60;;;5.00;;
62796;SDS011;48839;48.546;-4.178;2023-03-24T02:14:30;18.65;;;3.88;;
62796;SDS011;48839;48.546;-4.178;2023-03-24T02:17:12;26.27;;;3.97;;
62796;SDS011;48839;48.546;-4.178;2023-03-24T02:25:02;12.52;;;2.05;;
62796;SDS011;48839;48.546;-4.178;2023-03-24T02:40:33;14.27;;;2.33;;
62796;SDS011;48839;48.546;-4.178;2023-03-24T02:43:20;19.27;;;3.15;;
62796;SDS011;48839;48.546;-4.178;2023-03-24T02:46:06;12.23;;;2.85;;
62796;SDS011;48839;48.546;-4.178;2023-03-24T02:51:26;24.83;;;3.75;;
62796;SDS011;48839;48.546;-4.178;2023-03-24T02:54:15;21.20;;;4.25;;
62796;SDS011;48839;48.546;-4.178;2023-03-24T02:59:33;16.45;;;4.00;;
62796;SDS011;48839;48.546;-4.178;2023-03-24T03:02:03;14.23;;;2.78;;
62796;SDS011;48839;48.546;-4.178;2023-03-24T03:04:31;20.33;;;3.60;;
62796;SDS011;48839;48.546;-4.178;2023-03-24T03:06:58;18.95;;;3.90;;
62796;SDS011;48839;48.546;-4.178;2023-03-24T03:09:26;19.33;;;3.53;;
62796;SDS011;48839;48.546;-4.178;2023-03-24T03:11:53;20.90;;;3.42;;
62796;SDS011;48839;48.546;-4.178;2023-03-24T03:14:32;17.23;;;3.03;;
62796;SDS011;48839;48.546;-4.178;2023-03-24T03:17:00;17.98;;;3.33;;
62796;SDS011;48839;48.546;-4.178;2023-03-24T03:19:32;21.95;;;4.10;;
62796;SDS011;48839;48.546;-4.178;2023-03-24T03:21:59;14.55;;;2.63;;
62796;SDS011;48839;48.546;-4.178;2023-03-24T03:24:31;23.75;;;2.88;;
62796;SDS011;48839;48.546;-4.178;2023-03-24T03:27:09;19.20;;;3.38;;
62796;SDS011;48839;48.546;-4.178;2023-03-24T03:29:39;31.92;;;3.42;;
62796;SDS011;48839;48.546;-4.178;2023-03-24T03:32:06;9.95;;;2.85;;
62796;SDS011;48839;48.546;-4.178;2023-03-24T03:39:59;32.55;;;10.98;;
62796;SDS011;48839;48.546;-4.178;2023-03-24T03:42:27;42.05;;;16.20;;
62796;SDS011;48839;48.546;-4.178;2023-03-24T03:44:53;41.08;;;14.02;;
62796;SDS011;48839;48.546;-4.178;2023-03-24T03:47:19;50.38;;;20.40;;
62796;SDS011;48839;48.546;-4.178;2023-03-24T03:49:47;24.98;;;10.27;;
62796;SDS011;48839;48.546;-4.178;2023-03-24T03:52:13;24.88;;;6.80;;
62796;SDS011;48839;48.546;-4.178;2023-03-24T03:54:39;19.02;;;3.83;;
62796;SDS011;48839;48.546;-4.178;2023-03-24T03:57:06;13.82;;;3.08;;
62796;SDS011;48839;48.546;-4.178;2023-03-24T03:59:34;12.50;;;3.10;;
62796;SDS011;48839;48.546;-4.178;2023-03-24T04:02:09;18.02;;;3.85;;
62796;SDS011;48839;48.546;-4.178;2023-03-24T04:10:20;13.23;;;2.88;;
62796;SDS011;48839;48.546;-4.178;2023-03-24T04:20:28;14.95;;;3.72;;
62796;SDS011;48839;48.546;-4.178;2023-03-24T04:30:49;14.10;;;3.28;;
62796;SDS011;48839;48.546;-4.178;2023-03-24T04:33:24;10.48;;;2.10;;
62796;SDS011;48839;48.546;-4.178;2023-03-24T04:36:03;9.95;;;2.15;;
62796;SDS011;48839;48.546;-4.178;2023-03-24T04:38:31;8.70;;;2.45;;
62796;SDS011;48839;48.546;-4.178;2023-03-24T04:41:00;18.85;;;3.42;;
62796;SDS011;48839;48.546;-4.178;2023-03-24T04:43:27;14.57;;;3.65;;
62796;SDS011;48839;48.546;-4.178;2023-03-24T04:46:00;12.32;;;2.00;;
62796;SDS011;48839;48.546;-4.178;2023-03-24T04:48:27;11.07;;;2.13;;
62796;SDS011;48839;48.546;-4.178;2023-03-24T04:50:56;21.83;;;3.35;;
62796;SDS011;48839;48.546;-4.178;2023-03-24T04:53:23;19.55;;;3.28;;
62796;SDS011;48839;48.546;-4.178;2023-03-24T04:58:15;11.88;;;2.65;;
62796;SDS011;48839;48.546;-4.178;2023-03-24T05:00:42;15.32;;;2.85;;
62796;SDS011;48839;48.546;-4.178;2023-03-24T05:03:08;14.15;;;2.03;;
62796;SDS011;48839;48.546;-4.178;2023-03-24T05:05:38;13.07;;;2.40;;
62796;SDS011;48839;48.546;-4.178;2023-03-24T05:08:05;15.10;;;2.40;;
62796;SDS011;48839;48.546;-4.178;2023-03-24T05:10:32;7.13;;;2.05;;
62796;SDS011;48839;48.546;-4.178;2023-03-24T05:12:58;12.02;;;1.95;;
62796;SDS011;48839;48.546;-4.178;2023-03-24T05:15:24;11.57;;;1.73;;
62796;SDS011;48839;48.546;-4.178;2023-03-24T05:17:50;11.55;;;2.35;;
62796;SDS011;48839;48.546;-4.178;2023-03-24T05:20:17;11.75;;;1.92;;
62796;SDS011;48839;48.546;-4.178;2023-03-24T05:22:43;12.02;;;2.05;;
62796;SDS011;48839;48.546;-4.178;2023-03-24T05:25:10;9.93;;;3.38;;
62796;SDS011;48839;48.546;-4.178;2023-03-24T05:27:36;7.93;;;2.17;;
62796;SDS011;48839;48.546;-4.178;2023-03-24T05:30:03;7.32;;;1.50;;
62796;SDS011;48839;48.546;-4.178;2023-03-24T05:32:30;6.85;;;2.08;;
62796;SDS011;48839;48.546;-4.178;2023-03-24T05:34:56;6.90;;;1.95;;
62796;SDS011;48839;48.546;-4.178;2023-03-24T05:37:22;12.88;;;2.15;;
62796;SDS011;48839;48.546;-4.178;2023-03-24T05:39:48;12.43;;;1.98;;
62796;SDS011;48839;48.546;-4.178;2023-03-24T05:42:15;7.10;;;2.40;;
62796;SDS011;48839;48.546;-4.178;2023-03-24T05:44:41;8.88;;;2.78;;
62796;SDS011;48839;48.546;-4.178;2023-03-24T05:47:07;15.52;;;3.97;;
62796;SDS011;48839;48.546;-4.178;2023-03-24T05:49:33;13.27;;;1.90;;
62796;SDS011;48839;48.546;-4.178;2023-03-24T05:52:00;12.35;;;1.65;;
62796;SDS011;48839;48.546;-4.178;2023-03-24T05:54:26;7.15;;;0.95;;
62796;SDS011;48839;48.546;-4.178;2023-03-24T05:56:52;3.88;;;0.98;;
62796;SDS011;48839;48.546;-4.178;2023-03-24T05:59:18;6.07;;;1.48;;
62796;SDS011;48839;48.546;-4.178;2023-03-24T06:01:45;4.47;;;1.00;;
62796;SDS011;48839;48.546;-4.178;2023-03-24T06:04:14;2.13;;;0.77;;
62796;SDS011;48839;48.546;-4.178;2023-03-24T06:06:40;3.03;;;0.60;;
62796;SDS011;48839;48.546;-4.178;2023-03-24T06:09:09;1.30;;;0.50;;
62796;SDS011;48839;48.546;-4.178;2023-03-24T06:11:36;2.53;;;0.90;;
62796;SDS011;48839;48.546;-4.178;2023-03-24T06:14:02;6.47;;;1.10;;
62796;SDS011;48839;48.546;-4.178;2023-03-24T06:16:28;5.28;;;0.88;;
62796;SDS011;48839;48.546;-4.178;2023-03-24T06:18:57;4.40;;;0.88;;
62796;SDS011;48839;48.546;-4.178;2023-03-24T06:21:24;4.97;;;1.30;;
62796;SDS011;48839;48.546;-4.178;2023-03-24T06:23:55;9.57;;;1.30;;
62796;SDS011;48839;48.546;-4.178;2023-03-24T06:26:22;1.55;;;0.98;;
62796;SDS011;48839;48.546;-4.178;2023-03-24T06:28:48;11.55;;;2.35;;
62796;SDS011;48839;48.546;-4.178;2023-03-24T06:31:18;12.50;;;3.05;;
62796;SDS011;48839;48.546;-4.178;2023-03-24T06:33:46;11.80;;;2.88;;
62796;SDS011;48839;48.546;-4.178;2023-03-24T06:36:13;9.57;;;2.88;;
62796;SDS011;48839;48.546;-4.178;2023-03-24T06:38:39;14.45;;;4.40;;
62796;SDS011;48839;48.546;-4.178;2023-03-24T06:41:06;17.35;;;5.10;;
62796;SDS011;48839;48.546;-4.178;2023-03-24T06:43:33;11.52;;;4.30;;
62796;SDS011;48839;48.546;-4.178;2023-03-24T06:45:59;10.05;;;2.95;;
62796;SDS011;48839;48.546;-4.178;2023-03-24T06:48:26;14.82;;;3.78;;
62796;SDS011;48839;48.546;-4.178;2023-03-24T06:50:52;9.30;;;2.22;;
62796;SDS011;48839;48.546;-4.178;2023-03-24T06:53:19;10.30;;;2.47;;
62796;SDS011;48839;48.546;-4.178;2023-03-24T06:55:48;8.25;;;2.15;;
62796;SDS011;48839;48.546;-4.178;2023-03-24T06:58:15;20.75;;;4.32;;
62796;SDS011;48839;48.546;-4.178;2023-03-24T07:00:41;12.82;;;2.17;;
62796;SDS011;48839;48.546;-4.178;2023-03-24T07:03:08;8.50;;;2.33;;
62796;SDS011;48839;48.546;-4.178;2023-03-24T07:05:40;15.63;;;2.65;;
62796;SDS011;48839;48.546;-4.178;2023-03-24T07:08:07;23.38;;;3.40;;
62796;SDS011;48839;48.546;-4.178;2023-03-24T07:10:34;13.23;;;3.65;;
62796;SDS011;48839;48.546;-4.178;2023-03-24T07:13:00;19.77;;;3.47;;
62796;SDS011;48839;48.546;-4.178;2023-03-24T07:15:27;13.40;;;3.58;;
62796;SDS011;48839;48.546;-4.178;2023-03-24T07:17:53;14.23;;;2.35;;
62796;SDS011;48839;48.546;-4.178;2023-03-24T07:20:19;22.05;;;3.53;;
62796;SDS011;48839;48.546;-4.178;2023-03-24T07:22:46;23.52;;;5.45;;
62796;SDS011;48839;48.546;-4.178;2023-03-24T07:25:12;50.38;;;21.27;;
62796;SDS011;48839;48.546;-4.178;2023-03-24T07:27:38;22.80;;;6.60;;
62796;SDS011;48839;48.546;-4.178;2023-03-24T07:30:05;42.53;;;7.10;;
62796;SDS011;48839;48.546;-4.178;2023-03-24T07:32:31;20.42;;;7.72;;
62796;SDS011;48839;48.546;-4.178;2023-03-24T07:35:04;25.65;;;5.28;;
62796;SDS011;48839;48.546;-4.178;2023-03-24T07:37:30;24.88;;;9.02;;
62796;SDS011;48839;48.546;-4.178;2023-03-24T07:39:56;22.13;;;7.45;;
62796;SDS011;48839;48.546;-4.178;2023-03-24T07:42:22;27.92;;;9.18;;
62796;SDS011;48839;48.546;-4.178;2023-03-24T07:44:49;22.15;;;5.97;;
62796;SDS011;48839;48.546;-4.178;2023-03-24T07:47:15;26.02;;;5.95;;
62796;SDS011;48839;48.546;-4.178;2023-03-24T07:49:42;16.60;;;4.80;;
62796;SDS011;48839;48.546;-4.178;2023-03-24T07:52:08;20.20;;;4.70;;
62796;SDS011;48839;48.546;-4.178;2023-03-24T07:54:34;19.08;;;3.92;;
62796;SDS011;48839;48.546;-4.178;2023-03-24T07:57:00;14.02;;;3.60;;
62796;SDS011;48839;48.546;-4.178;2023-03-24T07:59:27;24.30;;;5.20;;
62796;SDS011;48839;48.546;-4.178;2023-03-24T08:01:53;14.48;;;3.58;;
62796;SDS011;48839;48.546;-4.178;2023-03-24T08:04:19;19.98;;;3.67;;
62796;SDS011;48839;48.546;-4.178;2023-03-24T08:06:45;20.38;;;4.10;;
62796;SDS011;48839;48.546;-4.178;2023-03-24T08:09:12;14.38;;;3.72;;
62796;SDS011;48839;48.546;-4.178;2023-03-24T08:11:38;13.57;;;2.83;;
62796;SDS011;48839;48.546;-4.178;2023-03-24T08:14:05;14.80;;;3.78;;
62796;SDS011;48839;48.546;-4.178;2023-03-24T08:16:31;21.83;;;3.92;;
62796;SDS011;48839;48.546;-4.178;2023-03-24T08:18:57;19.30;;;4.60;;
62796;SDS011;48839;48.546;-4.178;2023-03-24T08:21:23;18.13;;;3.80;;
62796;SDS011;48839;48.546;-4.178;2023-03-24T08:23:49;28.65;;;4.35;;
62796;SDS011;48839;48.546;-4.178;2023-03-24T08:26:15;12.32;;;3.00;;
62796;SDS011;48839;48.546;-4.178;2023-03-24T08:28:41;24.60;;;5.07;;
62796;SDS011;48839;48.546;-4.178;2023-03-24T08:31:07;20.38;;;4.50;;
62796;SDS011;48839;48.546;-4.178;2023-03-24T08:33:33;15.52;;;4.50;;
62796;SDS011;48839;48.546;-4.178;2023-03-24T08:35:59;22.20;;;4.28;;
62796;SDS011;48839;48.546;-4.178;2023-03-24T08:38:26;14.95;;;3.22;;
62796;SDS011;48839;48.546;-4.178;2023-03-24T08:40:56;11.60;;;2.65;;
62796;SDS011;48839;48.546;-4.178;2023-03-24T08:43:23;14.25;;;2.95;;
62796;SDS011;48839;48.546;-4.178;2023-03-24T08:45:49;17.73;;;3.75;;
62796;SDS011;48839;48.546;-4.178;2023-03-24T08:48:15;19.63;;;3.70;;
62796;SDS011;48839;48.546;-4.178;2023-03-24T08:50:42;20.85;;;5.93;;
62796;SDS011;48839;48.546;-4.178;2023-03-24T08:53:08;13.98;;;3.95;;
62796;SDS011;48839;48.546;-4.178;2023-03-24T08:55:37;14.63;;;2.85;;
62796;SDS011;48839;48.546;-4.178;2023-03-24T08:58:07;13.90;;;3.13;;
62796;SDS011;48839;48.546;-4.178;2023-03-24T09:00:33;13.52;;;2.97;;
62796;SDS011;48839;48.546;-4.178;2023-03-24T09:02:59;20.38;;;2.78;;
62796;SDS011;48839;48.546;-4.178;2023-03-24T09:05:25;14.80;;;2.58;;
62796;SDS011;48839;48.546;-4.178;2023-03-24T09:07:51;13.38;;;2.28;;
62796;SDS011;48839;48.546;-4.178;2023-03-24T09:10:18;16.27;;;3.22;;
62796;SDS011;48839;48.546;-4.178;2023-03-24T09:12:46;22.13;;;2.63;;
62796;SDS011;48839;48.546;-4.178;2023-03-24T09:15:12;14.18;;;2.53;;
62796;SDS011;48839;48.546;-4.178;2023-03-24T09:17:39;13.07;;;2.75;;
62796;SDS011;48839;48.546;-4.178;2023-03-24T09:20:06;13.30;;;2.58;;
62796;SDS011;48839;48.546;-4.178;2023-03-24T09:22:36;21.10;;;3.97;;
62796;SDS011;48839;48.546;-4.178;2023-03-24T09:25:02;19.75;;;3.35;;
62796;SDS011;48839;48.546;-4.178;2023-03-24T09:27:28;15.25;;;3.78;;
62796;SDS011;48839;48.546;-4.178;2023-03-24T09:29:55;11.52;;;2.55;;
62796;SDS011;48839;48.546;-4.178;2023-03-24T09:32:21;9.60;;;2.40;;
62796;SDS011;48839;48.546;-4.178;2023-03-24T09:34:47;15.32;;;3.95;;
62796;SDS011;48839;48.546;-4.178;2023-03-24T09:37:13;10.75;;;2.33;;
62796;SDS011;48839;48.546;-4.178;2023-03-24T09:39:39;11.05;;;2.03;;
62796;SDS011;48839;48.546;-4.178;2023-03-24T09:42:05;17.63;;;4.60;;
62796;SDS011;48839;48.546;-4.178;2023-03-24T09:44:35;16.73;;;2.50;;
62796;SDS011;48839;48.546;-4.178;2023-03-24T09:49:31;7.03;;;1.50;;
62796;SDS011;48839;48.546;-4.178;2023-03-24T09:52:04;4.35;;;0.90;;
62796;SDS011;48839;48.546;-4.178;2023-03-24T09:54:48;5.03;;;1.10;;
62796;SDS011;48839;48.546;-4.178;2023-03-24T09:57:24;5.30;;;0.98;;
62796;SDS011;48839;48.546;-4.178;2023-03-24T09:59:52;5.32;;;1.35;;
62796;SDS011;48839;48.546;-4.178;2023-03-24T10:02:18;3.97;;;1.60;;
62796;SDS011;48839;48.546;-4.178;2023-03-24T10:04:44;1.73;;;0.77;;
62796;SDS011;48839;48.546;-4.178;2023-03-24T10:09:37;6.68;;;1.52;;
62796;SDS011;48839;48.546;-4.178;2023-03-24T10:14:44;13.68;;;2.60;;
62796;SDS011;48839;48.546;-4.178;2023-03-24T10:19:47;7.88;;;2.25;;
62796;SDS011;48839;48.546;-4.178;2023-03-24T10:22:31;11.48;;;2.70;;
62796;SDS011;48839;48.546;-4.178;2023-03-24T10:27:45;16.88;;;2.70;;
62796;SDS011;48839;48.546;-4.178;2023-03-24T10:30:18;14.63;;;2.72;;
62796;SDS011;48839;48.546;-4.178;2023-03-24T10:32:45;7.88;;;1.92;;
62796;SDS011;48839;48.546;-4.178;2023-03-24T10:35:17;12.43;;;1.85;;
62796;SDS011;48839;48.546;-4.178;2023-03-24T10:37:44;8.82;;;1.50;;
62796;SDS011;48839;48.546;-4.178;2023-03-24T10:40:13;9.95;;;1.80;;
62796;SDS011;48839;48.546;-4.178;2023-03-24T10:42:40;9.63;;;1.50;;
62796;SDS011;48839;48.546;-4.178;2023-03-24T10:45:11;9.90;;;2.45;;
62796;SDS011;48839;48.546;-4.178;2023-03-24T10:47:37;13.55;;;2.35;;
62796;SDS011;48839;48.546;-4.178;2023-03-24T10:50:05;18.80;;;2.97;;
62796;SDS011;48839;48.546;-4.178;2023-03-24T10:53:05;17.17;;;3.30;;
62796;SDS011;48839;48.546;-4.178;2023-03-24T10:55:28;8.40;;;2.20;;
62796;SDS011;48839;48.546;-4.178;2023-03-24T10:57:56;18.45;;;2.50;;
62796;SDS011;48839;48.546;-4.178;2023-03-24T11:00:24;10.30;;;2.83;;
62796;SDS011;48839;48.546;-4.178;2023-03-24T11:03:15;10.57;;;2.28;;
62796;SDS011;48839;48.546;-4.178;2023-03-24T11:05:40;15.07;;;2.55;;
62796;SDS011;48839;48.546;-4.178;2023-03-24T11:08:13;11.90;;;2.60;;
62796;SDS011;48839;48.546;-4.178;2023-03-24T11:10:44;20.10;;;3.50;;
62796;SDS011;48839;48.546;-4.178;2023-03-24T11:13:16;14.88;;;3.08;;
62796;SDS011;48839;48.546;-4.178;2023-03-24T11:15:51;20.80;;;3.45;;
62796;SDS011;48839;48.546;-4.178;2023-03-24T11:18:17;19.67;;;3.97;;
62796;SDS011;48839;48.546;-4.178;2023-03-24T11:21:00;12.45;;;2.72;;
62796;SDS011;48839;48.546;-4.178;2023-03-24T11:23:33;14.50;;;3.30;;
62796;SDS011;48839;48.546;-4.178;2023-03-24T11:28:36;19.80;;;3.22;;
62796;SDS011;48839;48.546;-4.178;2023-03-24T11:31:04;17.60;;;2.70;;
62796;SDS011;48839;48.546;-4.178;2023-03-24T11:33:32;12.60;;;2.90;;
62796;SDS011;48839;48.546;-4.178;2023-03-24T11:38:43;7.05;;;1.60;;
62796;SDS011;48839;48.546;-4.178;2023-03-24T11:41:22;14.43;;;2.28;;
62796;SDS011;48839;48.546;-4.178;2023-03-24T11:43:48;10.40;;;2.53;;
62796;SDS011;48839;48.546;-4.178;2023-03-24T11:46:18;9.07;;;1.98;;
62796;SDS011;48839;48.546;-4.178;2023-03-24T11:51:35;42.42;;;18.75;;
62796;SDS011;48839;48.546;-4.178;2023-03-24T11:54:02;39.67;;;18.73;;
62796;SDS011;48839;48.546;-4.178;2023-03-24T11:56:35;22.08;;;9.98;;
62796;SDS011;48839;48.546;-4.178;2023-03-24T12:07:52;7.18;;;1.23;;
62796;SDS011;48839;48.546;-4.178;2023-03-24T12:15:19;6.95;;;1.20;;
62796;SDS011;48839;48.546;-4.178;2023-03-24T12:17:52;2.38;;;1.08;;
62796;SDS011;48839;48.546;-4.178;2023-03-24T12:20:22;1.08;;;0.85;;
62796;SDS011;48839;48.546;-4.178;2023-03-24T12:22:58;2.15;;;1.10;;
62796;SDS011;48839;48.546;-4.178;2023-03-24T12:46:34;7.47;;;1.38;;
62796;SDS011;48839;48.546;-4.178;2023-03-24T12:51:34;11.70;;;2.70;;
62796;SDS011;48839;48.546;-4.178;2023-03-24T12:56:53;7.80;;;2.10;;
62796;SDS011;48839;48.546;-4.178;2023-03-24T12:59:29;5.93;;;1.70;;
62796;SDS011;48839;48.546;-4.178;2023-03-24T13:02:21;11.27;;;1.65;;
62796;SDS011;48839;48.546;-4.178;2023-03-24T13:04:43;9.02;;;2.35;;
62796;SDS011;48839;48.546;-4.178;2023-03-24T13:07:11;9.55;;;1.50;;
62796;SDS011;48839;48.546;-4.178;2023-03-24T13:09:46;16.55;;;2.22;;
62796;SDS011;48839;48.546;-4.178;2023-03-24T13:18:04;6.22;;;1.85;;
62796;SDS011;48839;48.546;-4.178;2023-03-24T13:20:00;8.50;;;2.45;;
62796;SDS011;48839;48.546;-4.178;2023-03-24T13:22:30;7.35;;;1.77;;
62796;SDS011;48839;48.546;-4.178;2023-03-24T13:24:57;9.82;;;1.95;;
62796;SDS011;48839;48.546;-4.178;2023-03-24T13:27:25;11.80;;;2.55;;
62796;SDS011;48839;48.546;-4.178;2023-03-24T13:30:05;8.88;;;2.10;;
62796;SDS011;48839;48.546;-4.178;2023-03-24T13:32:36;4.25;;;1.38;;
62796;SDS011;48839;48.546;-4.178;2023-03-24T13:40:05;7.97;;;2.28;;
62796;SDS011;48839;48.546;-4.178;2023-03-24T13:42:32;11.18;;;1.92;;
62796;SDS011;48839;48.546;-4.178;2023-03-24T13:45:00;10.02;;;1.80;;
62796;SDS011;48839;48.546;-4.178;2023-03-24T13:47:45;13.70;;;2.00;;
62796;SDS011;48839;48.546;-4.178;2023-03-24T13:50:12;8.18;;;2.03;;
62796;SDS011;48839;48.546;-4.178;2023-03-24T13:52:39;11.95;;;2.17;;
62796;SDS011;48839;48.546;-4.178;2023-03-24T13:55:13;12.00;;;2.00;;
62796;SDS011;48839;48.546;-4.178;2023-03-24T13:57:40;8.02;;;2.30;;
62796;SDS011;48839;48.546;-4.178;2023-03-24T14:02:39;14.40;;;2.05;;
62796;SDS011;48839;48.546;-4.178;2023-03-24T14:05:07;20.33;;;2.88;;
62796;SDS011;48839;48.546;-4.178;2023-03-24T14:10:25;15.07;;;2.28;;
62796;SDS011;48839;48.546;-4.178;2023-03-24T14:12:54;14.60;;;2.53;;
62796;SDS011;48839;48.546;-4.178;2023-03-24T14:15:33;15.52;;;2.53;;
62796;SDS011;48839;48.546;-4.178;2023-03-24T14:21:04;10.35;;;3.33;;
62796;SDS011;48839;48.546;-4.178;2023-03-24T14:23:43;16.15;;;2.78;;
62796;SDS011;48839;48.546;-4.178;2023-03-24T14:26:14;5.70;;;2.58;;
62796;SDS011;48839;48.546;-4.178;2023-03-24T14:28:44;10.95;;;3.05;;
62796;SDS011;48839;48.546;-4.178;2023-03-24T14:39:02;17.63;;;2.88;;
62796;SDS011;48839;48.546;-4.178;2023-03-24T14:41:31;15.30;;;2.72;;
62796;SDS011;48839;48.546;-4.178;2023-03-24T14:44:03;15.07;;;3.42;;
62796;SDS011;48839;48.546;-4.178;2023-03-24T14:46:36;9.10;;;2.33;;
62796;SDS011;48839;48.546;-4.178;2023-03-24T14:49:04;10.20;;;2.70;;
62796;SDS011;48839;48.546;-4.178;2023-03-24T14:51:44;16.17;;;2.75;;
62796;SDS011;48839;48.546;-4.178;2023-03-24T14:54:35;14.80;;;2.85;;
62796;SDS011;48839;48.546;-4.178;2023-03-24T14:56:58;11.98;;;3.00;;
62796;SDS011;48839;48.546;-4.178;2023-03-24T15:02:22;11.68;;;2.92;;
62796;SDS011;48839;48.546;-4.178;2023-03-24T15:07:35;6.82;;;1.70;;
62796;SDS011;48839;48.546;-4.178;2023-03-24T15:10:01;10.45;;;2.00;;
62796;SDS011;48839;48.546;-4.178;2023-03-24T15:12:27;7.65;;;1.60;;
62796;SDS011;48839;48.546;-4.178;2023-03-24T15:14:53;13.27;;;2.58;;
62796;SDS011;48839;48.546;-4.178;2023-03-24T15:17:22;13.15;;;2.42;;
62796;SDS011;48839;48.546;-4.178;2023-03-24T15:19:53;9.82;;;1.65;;
62796;SDS011;48839;48.546;-4.178;2023-03-24T15:22:19;9.68;;;2.70;;
62796;SDS011;48839;48.546;-4.178;2023-03-24T15:24:46;7.15;;;1.70;;
62796;SDS011;48839;48.546;-4.178;2023-03-24T15:27:23;8.52;;;1.77;;
62796;SDS011;48839;48.546;-4.178;2023-03-24T15:29:54;5.43;;;1.80;;
62796;SDS011;48839;48.546;-4.178;2023-03-24T15:32:22;11.27;;;1.98;;
62796;SDS011;48839;48.546;-4.178;2023-03-24T15:34:52;8.38;;;1.65;;
62796;SDS011;48839;48.546;-4.178;2023-03-24T15:37:20;8.80;;;2.22;;
62796;SDS011;48839;48.546;-4.178;2023-03-24T15:39:48;16.45;;;2.90;;
62796;SDS011;48839;48.546;-4.178;2023-03-24T15:42:16;10.98;;;1.92;;
62796;SDS011;48839;48.546;-4.178;2023-03-24T15:44:42;7.75;;;1.38;;
62796;SDS011;48839;48.546;-4.178;2023-03-24T15:47:27;10.57;;;2.17;;
62796;SDS011;48839;48.546;-4.178;2023-03-24T15:49:55;6.13;;;1.17;;
62796;SDS011;48839;48.546;-4.178;2023-03-24T15:52:23;8.13;;;2.03;;
62796;SDS011;48839;48.546;-4.178;2023-03-24T15:54:50;10.07;;;2.17;;
62796;SDS011;48839;48.546;-4.178;2023-03-24T15:57:18;7.97;;;1.85;;
62796;SDS011;48839;48.546;-4.178;2023-03-24T15:59:49;9.30;;;1.52;;
62796;SDS011;48839;48.546;-4.178;2023-03-24T16:02:26;10.18;;;2.20;;
62796;SDS011;48839;48.546;-4.178;2023-03-24T16:04:56;12.05;;;2.15;;
62796;SDS011;48839;48.546;-4.178;2023-03-24T16:07:28;7.82;;;1.77;;
62796;SDS011;48839;48.546;-4.178;2023-03-24T16:09:59;15.52;;;2.80;;
62796;SDS011;48839;48.546;-4.178;2023-03-24T16:12:36;13.35;;;2.35;;
62796;SDS011;48839;48.546;-4.178;2023-03-24T16:15:03;12.25;;;1.83;;
62796;SDS011;48839;48.546;-4.178;2023-03-24T16:17:31;12.40;;;2.22;;
62796;SDS011;48839;48.546;-4.178;2023-03-24T16:19:57;7.97;;;1.40;;
62796;SDS011;48839;48.546;-4.178;2023-03-24T16:22:23;10.23;;;2.13;;
62796;SDS011;48839;48.546;-4.178;2023-03-24T16:24:49;12.63;;;4.68;;
62796;SDS011;48839;48.546;-4.178;2023-03-24T16:27:15;13.60;;;5.80;;
62796;SDS011;48839;48.546;-4.178;2023-03-24T16:29:41;12.40;;;6.88;;
62796;SDS011;48839;48.546;-4.178;2023-03-24T16:32:07;14.30;;;7.70;;
62796;SDS011;48839;48.546;-4.178;2023-03-24T16:34:34;11.85;;;5.13;;
62796;SDS011;48839;48.546;-4.178;2023-03-24T16:37:01;24.45;;;12.80;;
62796;SDS011;48839;48.546;-4.178;2023-03-24T16:39:28;10.57;;;5.85;;
62796;SDS011;48839;48.546;-4.178;2023-03-24T16:41:55;6.60;;;3.95;;
62796;SDS011;48839;48.546;-4.178;2023-03-24T16:44:21;4.80;;;3.17;;
62796;SDS011;48839;48.546;-4.178;2023-03-24T16:46:49;4.05;;;2.05;;
62796;SDS011;48839;48.546;-4.178;2023-03-24T16:49:16;5.70;;;2.78;;
62796;SDS011;48839;48.546;-4.178;2023-03-24T16:51:42;11.68;;;3.50;;
62796;SDS011;48839;48.546;-4.178;2023-03-24T16:54:08;4.97;;;1.92;;
62796;SDS011;48839;48.546;-4.178;2023-03-24T16:56:38;6.97;;;2.30;;
62796;SDS011;48839;48.546;-4.178;2023-03-24T16:59:04;11.32;;;3.80;;
62796;SDS011;48839;48.546;-4.178;2023-03-24T17:01:40;10.32;;;1.73;;
62796;SDS011;48839;48.546;-4.178;2023-03-24T17:04:13;6.43;;;2.08;;